Time;durP1;ratioP1;P1;durP2;ratioP2;P2;SDS_P1;SDS_P2;PMS_P1;PMS_P2;Temp;Humidity;BMP_temperature;BMP_pressure;BME280_temperature;BME280_humidity;BME280_pressure;Samples;Min_cycle;Max_cycle;Signal;HPM_P1;HPM_P2
2023/09/28 00:01:31;;;;;;;6.00;5.40;;;18.60;99.90;;;;;;5073374;28;20396;-76
2023/09/28 00:03:56;;;;;;;6.63;5.80;;;18.60;99.90;;;;;;5073448;28;20981;-76
2023/09/28 00:06:22;;;;;;;7.73;6.80;;;18.70;99.90;;;;;;5073144;28;20196;-76
2023/09/28 00:08:47;;;;;;;8.20;6.57;;;18.70;99.90;;;;;;5072169;28;20211;-75
2023/09/28 00:11:13;;;;;;;9.63;5.43;;;18.60;99.90;;;;;;5073303;28;20186;-76
2023/09/28 00:13:38;;;;;;;7.07;6.33;;;18.70;99.90;;;;;;5073193;28;20670;-76
2023/09/28 00:16:04;;;;;;;6.33;5.50;;;18.70;99.90;;;;;;5072929;28;20551;-76
2023/09/28 00:18:29;;;;;;;5.90;5.30;;;18.80;99.90;;;;;;5071544;28;20170;-75
2023/09/28 00:20:55;;;;;;;8.43;5.23;;;18.80;99.90;;;;;;5073055;28;20311;-76
2023/09/28 00:23:21;;;;;;;6.40;5.70;;;18.90;99.90;;;;;;5072870;28;20204;-76
2023/09/28 00:25:47;;;;;;;7.30;5.43;;;18.90;99.90;;;;;;5054476;28;20221;-76
2023/09/28 00:28:12;;;;;;;7.13;5.33;;;18.80;99.90;;;;;;5054698;28;20577;-76
2023/09/28 00:30:38;;;;;;;6.07;4.40;;;18.80;99.90;;;;;;5054183;28;20185;-76
2023/09/28 00:33:04;;;;;;;5.37;4.80;;;18.90;99.90;;;;;;5072659;28;20688;-75
2023/09/28 00:35:30;;;;;;;8.07;6.60;;;19.00;99.90;;;;;;5072673;28;20197;-76
2023/09/28 00:37:56;;;;;;;5.83;5.33;;;18.90;99.90;;;;;;5072496;28;20202;-76
2023/09/28 00:40:28;;;;;;;5.03;4.63;;;18.90;99.90;;;;;;5072623;28;20845;-76
2023/09/28 00:42:55;;;;;;;7.73;6.13;;;18.90;99.90;;;;;;5072573;28;20253;-76
2023/09/28 00:45:22;;;;;;;6.40;5.63;;;18.90;99.90;;;;;;5072145;28;20776;-76
2023/09/28 00:48:09;;;;;;;6.60;5.50;;;18.80;99.90;;;;;;5072128;28;20415;-76
2023/09/28 00:50:34;;;;;;;7.07;6.27;;;18.90;99.90;;;;;;5072503;28;20408;-76
2023/09/28 00:53:04;;;;;;;6.07;5.43;;;18.70;99.90;;;;;;5072093;28;20518;-75
2023/09/28 00:55:30;;;;;;;6.50;5.80;;;18.70;99.90;;;;;;5071544;28;20210;-75
2023/09/28 00:58:08;;;;;;;8.43;6.30;;;18.70;99.90;;;;;;5071298;28;20401;-75
2023/09/28 01:00:34;;;;;;;6.00;5.40;;;18.70;99.90;;;;;;5053040;28;20416;-76
2023/09/28 01:03:02;;;;;;;6.10;5.23;;;18.70;99.90;;;;;;5053346;28;20416;-76
2023/09/28 01:05:33;;;;;;;5.53;5.03;;;18.70;99.90;;;;;;5071310;28;20478;-76
2023/09/28 01:08:09;;;;;;;5.83;5.27;;;18.70;99.90;;;;;;5053391;28;20462;-76
2023/09/28 01:10:36;;;;;;;5.63;5.03;;;18.60;99.90;;;;;;5071452;28;20766;-76
2023/09/28 01:13:11;;;;;;;7.30;6.60;;;18.50;99.90;;;;;;5071338;28;20459;-76
2023/09/28 01:15:46;;;;;;;6.97;6.30;;;18.40;99.90;;;;;;5071259;28;20420;-76
2023/09/28 01:18:17;;;;;;;8.10;6.53;;;18.30;99.90;;;;;;5071365;28;20404;-76
2023/09/28 01:20:47;;;;;;;6.47;5.87;;;18.30;99.90;;;;;;5071190;28;20403;-76
2023/09/28 01:23:16;;;;;;;7.93;7.13;;;18.20;99.90;;;;;;5071179;28;20428;-76
2023/09/28 01:25:45;;;;;;;6.37;5.77;;;18.20;99.90;;;;;;5070974;28;20514;-76
2023/09/28 01:28:10;;;;;;;7.30;5.83;;;18.10;99.90;;;;;;5070994;28;20416;-75
2023/09/28 01:30:36;;;;;;;6.40;5.80;;;18.10;99.90;;;;;;5071202;28;20784;-76
2023/09/28 01:33:02;;;;;;;7.80;6.40;;;18.10;99.90;;;;;;5070901;28;20193;-76
2023/09/28 01:35:29;;;;;;;7.10;6.40;;;18.10;99.90;;;;;;5070989;28;20184;-76
2023/09/28 01:38:16;;;;;;;6.47;5.90;;;18.00;99.90;;;;;;5070705;28;20458;-76
2023/09/28 01:40:42;;;;;;;5.87;5.37;;;18.00;99.90;;;;;;5070960;28;20764;-76
2023/09/28 01:43:08;;;;;;;6.20;5.60;;;18.10;99.90;;;;;;5051650;28;20404;-76
2023/09/28 01:45:33;;;;;;;6.23;5.10;;;18.20;99.90;;;;;;5070606;28;20914;-73
2023/09/28 01:48:00;;;;;;;5.40;5.00;;;18.20;99.90;;;;;;5070976;28;20171;-76
2023/09/28 01:50:25;;;;;;;6.17;4.90;;;18.20;99.90;;;;;;5070690;28;20240;-76
2023/09/28 01:52:51;;;;;;;5.55;4.60;;;18.30;99.90;;;;;;5032799;28;1076850;-75
2023/09/28 01:55:17;;;;;;;7.83;5.43;;;18.30;99.90;;;;;;5071555;28;20192;-76
2023/09/28 01:57:42;;;;;;;5.40;4.90;;;18.30;99.90;;;;;;5071545;28;20177;-76
2023/09/28 02:00:17;;;;;;;5.00;4.60;;;18.40;99.90;;;;;;5053649;28;20261;-76
2023/09/28 02:02:43;;;;;;;5.60;4.17;;;18.40;99.90;;;;;;5052403;28;20177;-76
2023/09/28 02:05:11;;;;;;;6.60;5.43;;;18.40;99.90;;;;;;5071263;28;20848;-76
2023/09/28 02:07:37;;;;;;;4.77;4.27;;;18.40;99.90;;;;;;5071346;28;20462;-76
2023/09/28 02:10:06;;;;;;;5.20;4.47;;;18.40;99.90;;;;;;5071581;28;20408;-76
2023/09/28 02:12:32;;;;;;;4.03;3.73;;;18.40;99.90;;;;;;5071475;28;20196;-76
2023/09/28 02:15:01;;;;;;;5.70;5.13;;;18.40;99.90;;;;;;5053297;28;20469;-76
2023/09/28 02:17:28;;;;;;;4.93;4.47;;;18.40;99.90;;;;;;5071231;28;20407;-76
2023/09/28 02:19:54;;;;;;;5.00;4.23;;;18.40;99.90;;;;;;5071438;28;20409;-76
2023/09/28 02:22:20;;;;;;;5.13;4.20;;;18.30;99.90;;;;;;5071169;28;20454;-76
2023/09/28 02:24:46;;;;;;;3.93;3.53;;;18.40;99.90;;;;;;5053179;28;20195;-76
2023/09/28 02:27:12;;;;;;;4.30;3.90;;;18.40;99.90;;;;;;5052816;28;20189;-75
2023/09/28 02:29:38;;;;;;;5.50;4.53;;;18.30;99.90;;;;;;5071428;28;20404;-76
2023/09/28 02:32:03;;;;;;;7.17;6.47;;;18.30;99.90;;;;;;5053127;28;20174;-76
2023/09/28 02:34:32;;;;;;;7.93;5.00;;;18.30;99.90;;;;;;5071005;28;20206;-76
2023/09/28 02:36:58;;;;;;;4.73;4.30;;;18.20;99.90;;;;;;5070899;28;20161;-76
2023/09/28 02:39:23;;;;;;;4.47;4.07;;;18.10;99.90;;;;;;5071104;28;20397;-76
2023/09/28 02:41:49;;;;;;;4.03;3.63;;;18.00;99.90;;;;;;5071243;28;20177;-76
2023/09/28 02:44:15;;;;;;;5.17;4.73;;;17.90;99.90;;;;;;5070828;28;20162;-76
2023/09/28 02:46:40;;;;;;;4.97;3.90;;;17.80;99.90;;;;;;5053103;28;20415;-76
2023/09/28 02:49:05;;;;;;;4.80;4.20;;;17.70;99.90;;;;;;5071248;28;20515;-76
2023/09/28 02:51:31;;;;;;;4.30;3.90;;;17.70;99.90;;;;;;5071210;28;20179;-79
2023/09/28 02:53:58;;;;;;;5.33;4.83;;;17.60;99.90;;;;;;5071774;28;20202;-76
2023/09/28 02:56:23;;;;;;;13.17;5.37;;;17.60;99.90;;;;;;5074390;28;20272;-76
2023/09/28 02:58:51;;;;;;;7.67;5.37;;;17.50;99.90;;;;;;5074642;28;20439;-76
2023/09/28 03:01:21;;;;;;;5.70;5.10;;;17.40;99.90;;;;;;5074342;28;20558;-76
2023/09/28 03:03:46;;;;;;;3.67;3.37;;;17.30;99.90;;;;;;5056283;28;20487;-76
2023/09/28 03:06:12;;;;;;;5.43;4.93;;;17.20;99.90;;;;;;5056409;28;20546;-76
2023/09/28 03:08:38;;;;;;;4.67;3.90;;;17.20;99.90;;;;;;5074622;28;20169;-76
2023/09/28 03:11:03;;;;;;;6.00;5.40;;;17.10;99.90;;;;;;5056498;28;20614;-76
2023/09/28 03:13:29;;;;;;;7.63;5.17;;;17.00;99.90;;;;;;5074292;28;20610;-76
2023/09/28 03:15:55;;;;;;;10.13;6.50;;;16.90;99.90;;;;;;5056282;28;20194;-77
2023/09/28 03:18:20;;;;;;;7.60;4.70;;;16.80;99.90;;;;;;5074236;28;20822;-77
2023/09/28 03:20:46;;;;;;;4.83;4.43;;;16.70;99.90;;;;;;5074381;28;20404;-76
2023/09/28 03:23:12;;;;;;;4.50;4.10;;;16.60;99.90;;;;;;5074312;28;20208;-77
2023/09/28 03:25:37;;;;;;;4.60;4.17;;;16.60;99.90;;;;;;5073915;28;20186;-76
2023/09/28 03:28:03;;;;;;;4.50;4.10;;;16.40;99.90;;;;;;5055850;28;20467;-76
2023/09/28 03:30:29;;;;;;;5.13;4.60;;;16.40;99.90;;;;;;5056083;28;20544;-75
2023/09/28 03:32:56;;;;;;;4.87;3.80;;;16.40;99.90;;;;;;5073737;28;20304;-76
2023/09/28 03:35:22;;;;;;;4.40;3.17;;;16.40;99.90;;;;;;5073881;28;21013;-76
2023/09/28 03:37:48;;;;;;;3.93;3.63;;;16.50;99.90;;;;;;5073909;28;20166;-76
2023/09/28 03:40:15;;;;;;;4.80;4.40;;;16.50;99.90;;;;;;5073997;28;20763;-76
2023/09/28 03:42:42;;;;;;;4.70;4.27;;;16.40;99.90;;;;;;5074252;28;20436;-76
2023/09/28 03:45:09;;;;;;;5.40;4.90;;;16.40;99.90;;;;;;5073621;28;20433;-76
2023/09/28 03:47:36;;;;;;;5.13;4.73;;;16.40;99.90;;;;;;5073627;28;20424;-77
2023/09/28 03:50:02;;;;;;;5.67;4.57;;;16.30;99.90;;;;;;5073886;28;20404;-76
2023/09/28 03:52:27;;;;;;;5.10;4.23;;;16.30;99.90;;;;;;5073781;28;20957;-76
2023/09/28 03:54:53;;;;;;;4.13;3.73;;;16.20;99.90;;;;;;5073342;28;20243;-75
2023/09/28 03:57:18;;;;;;;4.70;4.20;;;16.20;99.90;;;;;;5073528;28;20173;-76
2023/09/28 03:59:44;;;;;;;4.30;3.90;;;16.10;99.90;;;;;;5073674;28;20166;-76
2023/09/28 04:02:10;;;;;;;4.30;3.23;;;16.20;99.90;;;;;;5073429;28;20236;-76
2023/09/28 04:04:35;;;;;;;3.67;3.23;;;16.10;99.90;;;;;;5073295;28;20201;-77
2023/09/28 04:07:01;;;;;;;5.27;4.10;;;16.10;99.90;;;;;;5054376;28;20405;-77
2023/09/28 04:09:26;;;;;;;4.43;3.63;;;16.00;99.90;;;;;;5073420;28;20166;-76
2023/09/28 04:11:52;;;;;;;3.90;3.50;;;16.00;99.90;;;;;;5073326;28;20178;-76
2023/09/28 04:14:17;;;;;;;4.17;3.77;;;16.00;99.90;;;;;;5073062;28;20194;-76
2023/09/28 04:16:43;;;;;;;4.73;4.13;;;16.00;99.90;;;;;;5072957;28;20170;-77
2023/09/28 04:19:08;;;;;;;4.77;4.37;;;15.90;99.90;;;;;;5055329;28;20248;-77
2023/09/28 04:21:34;;;;;;;5.20;4.17;;;15.90;99.90;;;;;;5055187;28;20166;-76
2023/09/28 04:24:00;;;;;;;4.17;3.73;;;15.90;99.90;;;;;;5055325;28;20220;-76
2023/09/28 04:26:25;;;;;;;4.83;3.47;;;15.80;99.90;;;;;;5072676;28;20844;-75
2023/09/28 04:28:52;;;;;;;3.97;3.67;;;15.80;99.90;;;;;;5055091;28;20202;-76
2023/09/28 04:31:18;;;;;;;3.60;3.20;;;15.80;99.90;;;;;;5072816;28;20158;-76
2023/09/28 04:33:44;;;;;;;4.83;4.40;;;15.70;99.90;;;;;;5072931;28;20510;-76
2023/09/28 04:36:09;;;;;;;3.83;3.53;;;15.70;99.90;;;;;;5054578;28;20942;-76
2023/09/28 04:38:36;;;;;;;4.00;3.60;;;15.60;99.90;;;;;;5055060;28;20540;-77
2023/09/28 04:41:02;;;;;;;3.67;3.33;;;15.70;99.90;;;;;;5072819;28;20565;-76
2023/09/28 04:43:28;;;;;;;3.63;3.33;;;15.70;99.90;;;;;;5072656;28;20439;-76
2023/09/28 04:45:53;;;;;;;3.67;3.37;;;15.60;99.90;;;;;;5072380;28;20186;-76
2023/09/28 04:48:19;;;;;;;4.33;3.13;;;15.60;99.90;;;;;;5072782;28;20221;-76
2023/09/28 04:50:44;;;;;;;4.87;3.13;;;15.60;99.90;;;;;;5072600;28;20683;-76
2023/09/28 04:53:10;;;;;;;3.50;3.20;;;15.50;99.90;;;;;;5072304;28;20244;-76
2023/09/28 04:55:36;;;;;;;3.50;3.20;;;15.50;99.90;;;;;;5072243;28;20723;-76
2023/09/28 04:58:01;;;;;;;4.70;3.70;;;15.50;99.90;;;;;;5072379;28;20212;-76
2023/09/28 05:00:27;;;;;;;5.57;5.00;;;15.50;99.90;;;;;;5054473;28;20253;-76
2023/09/28 05:02:53;;;;;;;3.70;3.40;;;15.50;99.90;;;;;;5054485;28;20209;-76
2023/09/28 05:05:18;;;;;;;4.23;3.80;;;15.40;99.90;;;;;;5072351;28;20262;-76
2023/09/28 05:07:44;;;;;;;12.30;7.83;;;15.40;99.90;;;;;;5072089;28;20404;-76
2023/09/28 05:10:10;;;;;;;7.23;6.03;;;15.30;99.90;;;;;;5072243;28;20162;-76
2023/09/28 05:12:35;;;;;;;4.37;3.40;;;15.30;99.90;;;;;;5072188;28;20520;-76
2023/09/28 05:15:02;;;;;;;5.63;3.63;;;15.20;99.90;;;;;;5071884;28;20206;-76
2023/09/28 05:17:28;;;;;;;3.63;3.33;;;15.20;99.90;;;;;;5071713;28;20571;-76
2023/09/28 05:19:54;;;;;;;5.47;3.70;;;15.20;99.90;;;;;;5072080;28;20431;-76
2023/09/28 05:22:19;;;;;;;4.63;3.53;;;15.20;99.90;;;;;;5054109;28;20490;-76
2023/09/28 05:24:46;;;;;;;4.10;3.70;;;15.20;99.90;;;;;;5071879;28;20185;-76
2023/09/28 05:27:11;;;;;;;4.93;3.90;;;15.30;99.90;;;;;;5072001;28;20163;-77
2023/09/28 05:29:37;;;;;;;5.10;3.03;;;15.20;99.90;;;;;;5072020;28;20930;-76
2023/09/28 05:32:04;;;;;;;3.83;3.30;;;15.20;99.90;;;;;;5071886;28;20209;-76
2023/09/28 05:34:29;;;;;;;4.00;3.53;;;15.20;99.90;;;;;;5071974;28;20952;-76
2023/09/28 05:36:55;;;;;;;6.57;3.13;;;15.20;99.90;;;;;;5072085;28;20484;-75
2023/09/28 05:39:21;;;;;;;3.87;2.97;;;15.20;99.90;;;;;;5053987;28;20162;-75
2023/09/28 05:41:47;;;;;;;5.43;3.20;;;15.20;99.90;;;;;;5071823;28;20910;-76
2023/09/28 05:44:14;;;;;;;5.23;3.27;;;15.20;99.90;;;;;;5071784;28;20499;-77
2023/09/28 05:46:40;;;;;;;3.43;3.00;;;15.20;99.90;;;;;;5071530;28;20166;-76
2023/09/28 05:49:05;;;;;;;3.77;3.00;;;15.20;99.90;;;;;;5053834;28;20415;-76
2023/09/28 05:51:31;;;;;;;3.57;2.60;;;15.20;99.90;;;;;;5071803;28;20483;-76
2023/09/28 05:53:56;;;;;;;4.73;3.10;;;15.20;99.90;;;;;;5053725;28;20206;-76
2023/09/28 05:56:22;;;;;;;6.53;3.63;;;15.30;99.90;;;;;;5072151;28;20178;-76
2023/09/28 05:58:48;;;;;;;4.67;2.83;;;15.30;99.90;;;;;;5053757;28;20170;-76
2023/09/28 06:01:17;;;;;;;3.00;2.70;;;15.30;99.90;;;;;;5071657;28;20170;-76
2023/09/28 06:03:42;;;;;;;3.50;3.00;;;15.40;99.90;;;;;;5053772;28;20503;-76
2023/09/28 06:06:18;;;;;;;3.10;2.80;;;15.50;99.90;;;;;;5071434;28;20503;-76
2023/09/28 06:08:48;;;;;;;3.87;2.63;;;15.60;99.90;;;;;;5071459;28;20201;-76
2023/09/28 06:11:14;;;;;;;5.87;2.90;;;15.70;99.90;;;;;;5071567;28;20945;-76
2023/09/28 06:13:41;;;;;;;3.73;2.80;;;15.80;99.90;;;;;;5071528;28;20444;-76
2023/09/28 06:16:09;;;;;;;4.00;2.93;;;15.90;99.90;;;;;;5071387;28;20943;-76
2023/09/28 06:18:36;;;;;;;3.57;2.87;;;16.00;99.90;;;;;;5071529;28;20401;-77
2023/09/28 06:21:02;;;;;;;4.10;3.07;;;16.10;99.90;;;;;;5071564;28;20408;-76
2023/09/28 06:23:27;;;;;;;3.27;2.97;;;16.20;99.90;;;;;;5071382;28;20411;-76
2023/09/28 06:25:53;;;;;;;4.77;3.40;;;16.30;99.90;;;;;;5053182;28;20432;-76
2023/09/28 06:28:19;;;;;;;4.80;3.53;;;16.40;99.90;;;;;;5071441;28;20668;-77
2023/09/28 06:30:44;;;;;;;3.23;3.00;;;16.50;99.90;;;;;;5075197;28;20158;-76
2023/09/28 06:33:10;;;;;;;3.00;2.70;;;16.70;99.90;;;;;;5075117;28;20197;-75
2023/09/28 06:35:35;;;;;;;3.47;3.17;;;16.80;99.90;;;;;;5075099;28;20236;-75
2023/09/28 06:38:01;;;;;;;7.53;3.00;;;17.00;99.90;;;;;;5075148;28;20170;-76
2023/09/28 06:40:26;;;;;;;3.13;2.83;;;17.10;99.90;;;;;;5075055;28;20189;-76
2023/09/28 06:42:52;;;;;;;2.40;2.20;;;17.30;99.90;;;;;;5075049;28;20228;-76
2023/09/28 06:45:18;;;;;;;3.50;2.50;;;17.50;99.90;;;;;;5056956;28;20217;-76
2023/09/28 06:47:44;;;;;;;2.67;2.47;;;17.70;99.90;;;;;;5056965;28;20170;-76
2023/09/28 06:50:10;;;;;;;3.07;2.40;;;17.90;99.90;;;;;;5074987;28;20399;-76
2023/09/28 06:52:37;;;;;;;3.73;3.43;;;18.10;99.90;;;;;;5074914;28;20162;-75
2023/09/28 06:55:04;;;;;;;7.17;3.37;;;18.30;99.90;;;;;;5075079;28;20463;-76
2023/09/28 06:57:30;;;;;;;5.10;3.03;;;18.40;99.90;;;;;;5056847;28;20405;-76
2023/09/28 06:59:55;;;;;;;4.23;2.97;;;18.50;99.90;;;;;;5057163;28;20417;-76
2023/09/28 07:02:21;;;;;;;5.73;3.73;;;18.80;99.90;;;;;;5057470;28;20773;-75
2023/09/28 07:04:47;;;;;;;4.80;3.37;;;19.00;99.90;;;;;;5074929;28;20700;-77
2023/09/28 07:07:16;;;;;;;3.70;2.73;;;19.30;99.90;;;;;;5074360;28;20185;-77
2023/09/28 07:09:43;;;;;;;2.97;2.67;;;19.50;99.90;;;;;;5074480;28;20640;-77
2023/09/28 07:12:10;;;;;;;3.07;2.80;;;19.80;99.90;;;;;;5074402;28;20767;-77
2023/09/28 07:14:36;;;;;;;4.30;2.87;;;20.10;99.90;;;;;;5074133;28;20456;-77
2023/09/28 07:17:02;;;;;;;3.60;2.70;;;20.50;99.90;;;;;;5074122;28;20487;-77
2023/09/28 07:19:27;;;;;;;3.13;2.63;;;20.70;99.90;;;;;;5056338;28;20664;-77
2023/09/28 07:21:53;;;;;;;3.00;2.70;;;21.00;99.90;;;;;;5074289;28;20166;-77
2023/09/28 07:24:19;;;;;;;3.60;2.77;;;21.30;99.90;;;;;;5055886;28;20261;-77
2023/09/28 07:26:46;;;;;;;2.93;2.60;;;21.50;99.90;;;;;;5073973;28;20496;-76
2023/09/28 07:29:12;;;;;;;4.17;3.77;;;21.70;99.90;;;;;;5074062;28;20166;-76
2023/09/28 07:31:38;;;;;;;4.87;3.33;;;21.80;99.90;;;;;;5074130;28;20411;-76
2023/09/28 07:34:04;;;;;;;6.23;3.53;;;21.90;99.90;;;;;;5073902;28;20546;-76
2023/09/28 07:36:29;;;;;;;4.27;2.83;;;22.00;99.90;;;;;;5055904;28;20237;-76
2023/09/28 07:38:55;;;;;;;4.37;2.90;;;22.20;99.90;;;;;;5074765;28;20194;-77
2023/09/28 07:41:21;;;;;;;3.77;2.80;;;22.30;99.90;;;;;;5060242;28;20194;-77
2023/09/28 07:43:46;;;;;;;4.60;3.30;;;22.40;99.90;;;;;;5080209;28;20162;-77
2023/09/28 07:46:13;;;;;;;3.67;3.10;;;22.60;99.90;;;;;;5058298;28;20224;-77
2023/09/28 07:48:39;;;;;;;3.60;2.90;;;22.70;99.90;;;;;;5073778;28;20173;-77
2023/09/28 07:51:04;;;;;;;3.17;2.87;;;22.90;99.90;;;;;;5074384;28;20396;-77
2023/09/28 07:53:31;;;;;;;3.03;2.83;;;23.10;99.90;;;;;;5079561;28;20194;-77
2023/09/28 07:55:56;;;;;;;4.33;3.20;;;23.10;99.90;;;;;;5061359;28;20182;-77
2023/09/28 07:58:22;;;;;;;5.30;3.00;;;23.40;99.90;;;;;;5078556;28;20439;-75
2023/09/28 08:00:48;;;;;;;3.80;2.70;;;23.90;99.90;;;;;;5072759;28;20408;-74
2023/09/28 08:03:14;;;;;;;6.53;2.87;;;24.40;99.90;;;;;;5055558;28;20181;-74
2023/09/28 08:05:39;;;;;;;2.70;2.50;;;24.80;99.90;;;;;;5073229;28;20790;-78
2023/09/28 08:08:05;;;;;;;4.50;2.80;;;25.20;99.90;;;;;;5074228;28;20171;-76
2023/09/28 08:10:32;;;;;;;3.27;2.93;;;25.60;99.90;;;;;;5075715;28;20219;-77
2023/09/28 08:12:59;;;;;;;4.07;3.00;;;25.90;99.90;;;;;;5073251;28;20526;-77
2023/09/28 08:15:25;;;;;;;3.70;3.17;;;26.00;99.90;;;;;;5073443;28;20417;-75
2023/09/28 08:17:50;;;;;;;3.60;3.30;;;26.00;99.90;;;;;;5073091;28;20765;-75
2023/09/28 08:20:16;;;;;;;4.77;2.90;;;26.40;99.90;;;;;;5073016;28;20174;-75
2023/09/28 08:22:42;;;;;;;3.80;3.43;;;26.60;99.90;;;;;;5073024;28;20293;-76
2023/09/28 08:25:08;;;;;;;6.10;3.60;;;27.30;99.90;;;;;;5071792;28;20438;-76
2023/09/28 08:27:33;;;;;;;5.70;3.60;;;28.60;99.90;;;;;;5072777;28;20249;-77
2023/09/28 08:29:59;;;;;;;5.57;3.57;;;29.30;96.60;;;;;;5071716;28;20170;-76
2023/09/28 08:53:08;;;;;;;8.70;3.70;;;28.90;85.20;;;;;;5072045;28;20456;-75
2023/09/28 08:55:34;;;;;;;4.10;3.50;;;29.60;85.10;;;;;;5072331;28;20429;-75
2023/09/28 08:58:00;;;;;;;6.20;3.23;;;29.70;82.80;;;;;;5072189;28;20403;-75
2023/09/28 09:00:26;;;;;;;4.33;3.10;;;30.20;80.60;;;;;;5072247;28;20404;-75
2023/09/28 09:02:52;;;;;;;7.63;3.37;;;30.00;76.70;;;;;;5054396;28;20409;-75
2023/09/28 09:05:18;;;;;;;4.23;3.83;;;31.00;77.60;;;;;;5072299;28;20178;-75
2023/09/28 09:07:44;;;;;;;7.93;3.63;;;31.40;70.40;;;;;;5054243;28;20430;-75
2023/09/28 09:10:17;;;;;;;5.50;3.50;;;32.40;69.00;;;;;;5054412;28;20652;-76
2023/09/28 09:12:42;;;;;;;5.67;3.20;;;33.60;67.50;;;;;;5071928;28;20407;-75
2023/09/28 09:15:08;;;;;;;3.20;2.87;;;35.70;63.00;;;;;;5053963;28;20452;-75
2023/09/28 09:17:35;;;;;;;4.63;2.67;;;37.40;53.80;;;;;;5071931;28;20241;-76
2023/09/28 09:20:05;;;;;;;5.10;3.47;;;38.60;47.40;;;;;;5071879;28;20481;-75
2023/09/28 09:22:30;;;;;;;4.47;3.10;;;39.40;42.90;;;;;;5071573;28;20918;-76
2023/09/28 09:24:58;;;;;;;3.23;2.77;;;39.10;40.40;;;;;;5071887;28;20420;-76
2023/09/28 09:27:31;;;;;;;6.57;3.90;;;38.70;41.10;;;;;;5071929;28;20169;-77
2023/09/28 09:30:07;;;;;;;4.50;3.77;;;37.00;40.30;;;;;;5071944;28;20466;-77
2023/09/28 09:32:35;;;;;;;4.20;3.10;;;35.10;41.60;;;;;;5071791;28;20407;-76
2023/09/28 09:35:00;;;;;;;7.40;3.60;;;34.10;44.30;;;;;;5071709;28;20448;-76
2023/09/28 09:37:26;;;;;;;4.27;2.97;;;32.90;46.00;;;;;;5071763;28;20960;-75
2023/09/28 09:39:51;;;;;;;3.30;3.00;;;33.30;48.80;;;;;;5071679;28;20165;-76
2023/09/28 09:42:27;;;;;;;3.80;3.43;;;33.10;47.30;;;;;;5071748;28;20158;-76
2023/09/28 09:44:54;;;;;;;5.10;3.83;;;32.70;48.30;;;;;;5071560;28;20193;-75
2023/09/28 09:47:20;;;;;;;4.17;3.07;;;32.60;49.60;;;;;;5053630;28;20794;-75
2023/09/28 09:49:48;;;;;;;3.90;3.10;;;32.90;49.80;;;;;;5053747;28;20802;-75
2023/09/28 09:52:18;;;;;;;3.37;2.70;;;32.70;49.30;;;;;;5071593;28;20902;-75
2023/09/28 09:54:46;;;;;;;3.37;2.87;;;33.60;49.50;;;;;;5071441;28;20820;-75
2023/09/28 09:57:15;;;;;;;5.67;3.17;;;35.60;50.00;;;;;;5071456;28;20759;-75
2023/09/28 09:59:46;;;;;;;3.20;2.90;;;36.50;44.40;;;;;;5071743;28;20446;-75
2023/09/28 10:02:22;;;;;;;3.23;2.93;;;36.60;43.70;;;;;;5053605;28;20874;-75
2023/09/28 10:04:50;;;;;;;4.07;3.27;;;35.80;42.80;;;;;;5073764;28;20424;-76
2023/09/28 10:07:16;;;;;;;4.37;3.43;;;35.80;44.90;;;;;;5057542;28;20414;-75
2023/09/28 10:09:43;;;;;;;5.10;3.03;;;35.70;42.90;;;;;;5075512;28;20400;-75
2023/09/28 10:12:10;;;;;;;10.30;3.47;;;35.20;42.80;;;;;;5057955;28;20988;-75
2023/09/28 10:14:36;;;;;;;4.20;3.00;;;34.70;43.80;;;;;;5075358;28;20452;-75
2023/09/28 10:17:04;;;;;;;7.50;3.53;;;34.50;44.50;;;;;;5075185;28;20841;-76
2023/09/28 10:19:30;;;;;;;4.93;3.60;;;34.40;45.80;;;;;;5075334;28;20400;-75
2023/09/28 10:21:56;;;;;;;5.67;3.30;;;35.80;46.60;;;;;;5075218;28;20414;-75
2023/09/28 10:24:30;;;;;;;4.27;2.70;;;37.50;45.10;;;;;;5075384;28;20405;-76
2023/09/28 10:26:57;;;;;;;4.47;3.13;;;39.00;43.50;;;;;;5075114;28;20158;-76
2023/09/28 10:29:28;;;;;;;3.80;3.20;;;40.40;41.90;;;;;;5075104;28;20865;-75
2023/09/28 10:31:54;;;;;;;6.20;3.13;;;40.90;39.60;;;;;;5057068;28;20458;-75
2023/09/28 10:34:20;;;;;;;6.07;4.00;;;41.10;36.50;;;;;;5074937;28;20447;-76
2023/09/28 10:37:11;;;;;;;6.10;3.60;;;41.60;36.10;;;;;;5074902;28;20169;-76
2023/09/28 10:39:37;;;;;;;3.60;3.30;;;42.20;36.60;;;;;;5061089;28;20412;-75
2023/09/28 10:42:15;;;;;;;3.40;3.07;;;42.50;35.00;;;;;;5075167;28;20776;-76
2023/09/28 10:44:55;;;;;;;3.27;2.97;;;41.90;33.70;;;;;;5074947;28;20419;-75
2023/09/28 10:47:21;;;;;;;4.50;2.97;;;41.10;34.70;;;;;;5074870;28;20423;-75
2023/09/28 10:49:53;;;;;;;3.67;2.90;;;40.80;35.70;;;;;;5075000;28;20753;-76
2023/09/28 10:52:22;;;;;;;4.67;3.23;;;40.70;35.80;;;;;;5074977;28;20408;-75
2023/09/28 10:54:47;;;;;;;3.23;2.93;;;40.10;35.50;;;;;;5056611;28;20472;-75
2023/09/28 10:57:13;;;;;;;3.23;2.93;;;39.30;36.20;;;;;;5074591;28;20785;-75
2023/09/28 10:59:41;;;;;;;4.60;2.93;;;38.50;37.10;;;;;;5074662;28;20169;-75
2023/09/28 11:02:07;;;;;;;3.53;3.23;;;37.70;37.20;;;;;;5056531;28;20170;-75
2023/09/28 11:04:37;;;;;;;3.00;2.80;;;36.80;37.10;;;;;;5074358;28;20424;-75
2023/09/28 11:07:03;;;;;;;4.00;3.30;;;35.90;38.60;;;;;;5074306;28;20899;-75
2023/09/28 11:09:29;;;;;;;7.13;2.90;;;35.40;40.10;;;;;;5056391;28;20463;-75
2023/09/28 11:11:55;;;;;;;2.67;2.47;;;34.90;40.30;;;;;;5074355;28;20907;-75
2023/09/28 11:14:25;;;;;;;5.03;3.20;;;35.00;41.50;;;;;;5073409;28;20229;-76
2023/09/28 11:16:52;;;;;;;3.37;2.77;;;35.60;41.80;;;;;;5074272;28;20165;-75
2023/09/28 11:19:18;;;;;;;3.80;2.80;;;36.40;39.60;;;;;;5055947;28;21030;-76
2023/09/28 11:21:44;;;;;;;3.33;3.03;;;38.10;40.40;;;;;;5074040;28;20407;-75
2023/09/28 11:24:11;;;;;;;3.40;2.40;;;40.40;38.30;;;;;;5074075;28;20404;-76
2023/09/28 11:26:38;;;;;;;3.17;2.50;;;41.60;34.20;;;;;;5073801;28;20174;-76
2023/09/28 11:29:04;;;;;;;2.40;2.20;;;42.80;34.10;;;;;;5073981;28;20415;-75
2023/09/28 11:31:35;;;;;;;3.73;2.83;;;44.10;33.00;;;;;;5074147;28;20379;-76
2023/09/28 11:34:02;;;;;;;3.07;2.87;;;45.60;32.00;;;;;;5056031;28;20194;-75
2023/09/28 11:36:28;;;;;;;5.20;3.13;;;47.30;30.20;;;;;;5073449;28;20481;-76
2023/09/28 11:38:55;;;;;;;3.00;2.80;;;48.40;29.30;;;;;;5073876;28;20439;-76
2023/09/28 11:41:24;;;;;;;3.57;3.10;;;49.40;28.60;;;;;;5055866;28;20391;-76
2023/09/28 11:43:56;;;;;;;6.77;6.07;;;49.80;26.40;;;;;;5073830;28;20788;-76
2023/09/28 11:46:27;;;;;;;4.53;4.13;;;49.60;26.10;;;;;;5055488;28;20432;-76
2023/09/28 11:49:14;;;;;;;4.03;3.70;;;49.00;24.90;;;;;;5073739;28;20383;-76
2023/09/28 11:51:40;;;;;;;4.37;2.90;;;47.50;26.30;;;;;;5073582;28;20390;-76
2023/09/28 11:54:11;;;;;;;5.60;3.13;;;46.40;27.20;;;;;;5073329;28;20991;-75
2023/09/28 11:56:37;;;;;;;9.53;4.40;;;45.90;27.60;;;;;;5073361;28;20410;-76
2023/09/28 11:59:03;;;;;;;3.70;3.13;;;45.20;27.30;;;;;;5073621;28;20375;-75
2023/09/28 12:01:29;;;;;;;4.40;3.27;;;45.00;28.00;;;;;;5073379;28;20162;-76
2023/09/28 12:03:56;;;;;;;3.37;3.07;;;45.00;28.50;;;;;;5073463;28;20411;-75
2023/09/28 12:06:22;;;;;;;5.03;3.30;;;45.20;27.20;;;;;;5072940;28;20197;-76
2023/09/28 12:08:48;;;;;;;3.30;3.10;;;45.30;27.40;;;;;;5073370;28;20379;-76
2023/09/28 12:11:14;;;;;;;3.37;3.07;;;45.60;28.50;;;;;;5073323;28;20644;-76
2023/09/28 12:13:39;;;;;;;3.73;2.97;;;45.70;27.90;;;;;;5073388;28;20240;-76
2023/09/28 12:16:06;;;;;;;7.63;3.10;;;45.70;27.90;;;;;;5054862;28;20197;-76
2023/09/28 12:18:32;;;;;;;3.73;2.90;;;45.40;26.80;;;;;;5073169;28;20247;-76
2023/09/28 12:20:59;;;;;;;3.50;2.97;;;44.90;27.50;;;;;;5073100;28;20433;-76
2023/09/28 12:23:25;;;;;;;2.93;2.73;;;44.60;28.20;;;;;;5072980;28;20757;-76
2023/09/28 12:25:52;;;;;;;4.80;3.43;;;44.50;28.70;;;;;;5072734;28;20447;-76
2023/09/28 12:28:17;;;;;;;4.13;2.73;;;44.60;28.40;;;;;;5072351;28;20280;-76
2023/09/28 12:30:43;;;;;;;4.13;3.03;;;44.00;27.20;;;;;;5072895;28;20443;-76
2023/09/28 12:33:09;;;;;;;5.37;3.50;;;43.30;27.80;;;;;;5072876;28;20391;-76
2023/09/28 12:35:35;;;;;;;5.00;3.33;;;42.60;28.60;;;;;;5072625;28;20182;-75
2023/09/28 12:38:04;;;;;;;4.30;3.50;;;42.00;29.50;;;;;;5054904;28;20660;-76
2023/09/28 12:40:32;;;;;;;3.90;3.03;;;42.00;30.40;;;;;;5072676;28;20396;-75
2023/09/28 12:43:04;;;;;;;3.03;2.70;;;42.40;30.40;;;;;;5072597;28;20937;-76
2023/09/28 12:45:34;;;;;;;3.47;3.13;;;43.10;30.30;;;;;;5072446;28;20420;-76
2023/09/28 12:48:04;;;;;;;3.00;2.80;;;43.80;29.80;;;;;;5072328;28;20914;-76
2023/09/28 12:50:31;;;;;;;5.10;3.20;;;44.60;29.30;;;;;;5053827;28;20627;-75
2023/09/28 12:52:57;;;;;;;3.17;2.87;;;45.40;28.90;;;;;;5072082;28;20951;-77
2023/09/28 12:55:23;;;;;;;4.23;2.90;;;46.20;28.30;;;;;;5084109;28;20458;-76
2023/09/28 12:57:50;;;;;;;3.33;3.03;;;46.90;27.30;;;;;;5072010;28;20427;-75
2023/09/28 13:00:17;;;;;;;3.57;2.80;;;47.60;27.60;;;;;;5079479;28;20173;-76
2023/09/28 13:02:44;;;;;;;4.07;3.07;;;48.30;26.50;;;;;;5084100;28;20389;-77
2023/09/28 13:05:09;;;;;;;3.80;3.50;;;48.70;26.20;;;;;;5092380;28;20394;-76